createdAt,value
2023-03-13T00:01:33.216Z,75.09
2023-03-13T00:04:01.634Z,75.33
2023-03-13T00:06:34.505Z,75.31
2023-03-13T00:09:02.769Z,75.32
2023-03-13T00:11:30.425Z,74.92
2023-03-13T00:14:02.313Z,74.95
2023-03-13T00:16:34.729Z,74.95
2023-03-13T00:19:02.301Z,75.17
2023-03-13T00:21:30.094Z,74.80
2023-03-13T00:24:04.038Z,74.57
2023-03-13T00:26:32.480Z,75.05
2023-03-13T00:29:00.756Z,74.73
2023-03-13T00:31:31.431Z,75.45
2023-03-13T00:34:02.575Z,75.18
2023-03-13T00:36:32.824Z,74.60
2023-03-13T00:39:08.227Z,74.20
2023-03-13T00:41:36.178Z,75.00
2023-03-13T00:44:04.445Z,74.38
2023-03-13T00:46:32.071Z,75.43
2023-03-13T00:48:59.717Z,74.81
2023-03-13T00:51:27.662Z,74.89
2023-03-13T00:53:56.594Z,75.68
2023-03-13T00:56:24.868Z,76.15
2023-03-13T00:58:52.968Z,75.64
2023-03-13T01:01:28.782Z,75.76
2023-03-13T01:03:58.368Z,75.26
2023-03-13T01:06:27.698Z,75.92
2023-03-13T01:08:59.346Z,75.94
2023-03-13T01:11:29.500Z,75.65
2023-03-13T01:13:59.371Z,75.46
2023-03-13T01:16:29.302Z,75.79
2023-03-13T01:19:03.393Z,75.53
2023-03-13T01:21:30.989Z,75.72
2023-03-13T01:23:58.706Z,75.20
2023-03-13T01:26:27.516Z,74.49
2023-03-13T01:28:55.855Z,75.07
2023-03-13T01:31:31.961Z,76.10
2023-03-13T01:34:01.543Z,76.89
2023-03-13T01:36:31.451Z,76.16
2023-03-13T01:39:00.247Z,76.90
2023-03-13T01:41:30.093Z,77.15
2023-03-13T01:43:58.728Z,76.48
2023-03-13T01:46:32.236Z,75.84
2023-03-13T01:49:10.196Z,76.18
2023-03-13T01:52:23.972Z,77.28
2023-03-13T01:54:57.401Z,77.15
2023-03-13T01:57:37.481Z,77.26
2023-03-13T02:00:13.623Z,76.95
2023-03-13T02:02:50.010Z,76.57
2023-03-13T02:05:19.368Z,77.08
2023-03-13T02:08:11.865Z,76.93
2023-03-13T02:10:42.808Z,76.59
2023-03-13T02:13:17.473Z,77.04
2023-03-13T02:15:45.363Z,76.35
2023-03-13T02:18:13.006Z,75.76
2023-03-13T02:20:44.801Z,76.94
2023-03-13T02:23:20.512Z,76.12
2023-03-13T02:25:52.173Z,76.82
2023-03-13T02:28:34.622Z,76.21
2023-03-13T02:31:05.197Z,75.84
2023-03-13T02:33:37.944Z,75.52
2023-03-13T02:36:10.570Z,76.15
2023-03-13T02:38:51.038Z,75.83
2023-03-13T02:41:18.861Z,74.90
2023-03-13T02:43:46.864Z,74.32
2023-03-13T02:46:19.545Z,75.02
2023-03-13T02:48:57.599Z,75.41
2023-03-13T02:51:33.148Z,75.05
2023-03-13T02:54:12.573Z,74.29
2023-03-13T02:56:42.007Z,74.57
2023-03-13T02:59:11.091Z,74.71
2023-03-13T03:01:41.966Z,74.83
2023-03-13T03:04:09.771Z,75.08
2023-03-13T03:06:37.492Z,74.91
2023-03-13T03:09:07.408Z,74.69
2023-03-13T03:11:38.742Z,74.38
2023-03-13T03:14:10.331Z,74.73
2023-03-13T03:16:43.005Z,75.49
2023-03-13T03:19:15.511Z,75.07
2023-03-13T03:21:43.474Z,75.53
2023-03-13T03:24:11.105Z,75.67
2023-03-13T03:26:38.641Z,76.38
2023-03-13T03:29:12.349Z,75.98
2023-03-13T03:31:44.571Z,76.64
2023-03-13T03:34:13.228Z,75.85
2023-03-13T03:36:40.877Z,75.97
2023-03-13T03:39:08.433Z,76.36
2023-03-13T03:41:37.575Z,76.58
2023-03-13T03:44:06.278Z,77.50
2023-03-13T03:46:48.978Z,77.65
2023-03-13T03:49:17.140Z,77.81
2023-03-13T03:51:44.818Z,77.23
2023-03-13T03:54:15.306Z,76.55
2023-03-13T03:56:43.026Z,76.90
2023-03-13T03:59:16.656Z,77.59
2023-03-13T04:01:57.392Z,77.54
2023-03-13T04:04:27.380Z,77.65
2023-03-13T04:07:02.443Z,77.29
2023-03-13T04:09:32.313Z,78.24
2023-03-13T04:12:02.077Z,78.45
2023-03-13T04:14:33.732Z,77.40
2023-03-13T04:17:04.955Z,77.40
2023-03-13T04:19:34.375Z,77.23
2023-03-13T04:22:02.555Z,76.90
2023-03-13T04:24:30.568Z,76.33
2023-03-13T04:26:58.640Z,76.71
2023-03-13T04:29:27.031Z,76.32
2023-03-13T04:32:03.573Z,75.94
2023-03-13T04:34:54.867Z,75.62
2023-03-13T04:37:46.194Z,75.91
2023-03-13T04:40:34.030Z,75.37
2023-03-13T04:43:17.629Z,74.98
2023-03-13T04:46:11.356Z,74.99
2023-03-13T04:48:51.896Z,74.12
2023-03-13T04:51:38.076Z,74.61
2023-03-13T04:54:28.918Z,74.14
2023-03-13T04:57:08.742Z,73.58
2023-03-13T05:00:08.267Z,74.14
2023-03-13T05:02:53.358Z,73.56
2023-03-13T05:05:29.289Z,73.19
2023-03-13T05:08:18.063Z,72.25
2023-03-13T05:14:38.727Z,72.41
2023-03-13T05:17:15.655Z,72.04
2023-03-13T05:20:11.460Z,71.70
2023-03-13T05:23:03.352Z,71.82
2023-03-13T05:25:56.745Z,71.49
2023-03-13T05:28:43.150Z,71.79
2023-03-13T05:31:10.925Z,71.52
2023-03-13T05:33:57.105Z,72.12
2023-03-13T05:36:43.596Z,71.86
2023-03-13T05:39:41.166Z,70.50
2023-03-13T05:42:45.171Z,69.63
2023-03-13T05:45:32.673Z,70.30
2023-03-13T05:48:12.146Z,69.45
2023-03-13T05:51:00.703Z,68.95
2023-03-13T05:53:54.186Z,68.04
2023-03-13T05:56:53.185Z,68.56
2023-03-13T05:59:46.989Z,66.33
2023-03-13T06:02:41.024Z,65.61
2023-03-13T06:05:13.955Z,65.42
2023-03-13T06:07:41.667Z,65.80
2023-03-13T06:10:10.655Z,64.96
2023-03-13T06:12:38.877Z,64.42
2023-03-13T06:15:11.695Z,63.81
2023-03-13T06:17:56.148Z,63.23
2023-03-13T06:20:24.060Z,61.93
2023-03-13T06:22:52.831Z,61.38
2023-03-13T06:25:20.682Z,61.79
2023-03-13T06:27:48.278Z,60.86
2023-03-13T06:30:16.271Z,60.86
2023-03-13T06:32:44.402Z,60.83
2023-03-13T06:35:12.399Z,60.03
2023-03-13T06:37:41.279Z,60.29
2023-03-13T06:40:09.852Z,60.21
2023-03-13T06:42:38.599Z,60.77
2023-03-13T06:45:06.696Z,58.39
2023-03-13T06:47:34.540Z,57.36
2023-03-13T06:50:02.110Z,57.82
2023-03-13T06:52:41.397Z,57.27
2023-03-13T06:55:11.272Z,57.11
2023-03-13T06:57:39.968Z,57.39
2023-03-13T07:00:11.513Z,56.47
2023-03-13T07:02:39.142Z,56.86
2023-03-13T07:05:08.692Z,56.50
2023-03-13T07:07:36.838Z,56.97
2023-03-13T07:10:05.369Z,56.80
2023-03-13T07:12:35.817Z,56.68
2023-03-13T07:15:04.690Z,56.06
2023-03-13T07:17:35.301Z,56.88
2023-03-13T07:20:10.746Z,56.04
2023-03-13T07:22:38.433Z,55.86
2023-03-13T07:25:07.319Z,55.76
2023-03-13T07:27:35.818Z,55.09
2023-03-13T07:30:03.598Z,55.91
2023-03-13T07:32:33.434Z,55.38
2023-03-13T07:35:03.434Z,54.11
2023-03-13T07:37:31.254Z,53.75
2023-03-13T07:39:59.093Z,53.88
2023-03-13T07:42:29.329Z,53.83
2023-03-13T07:44:56.924Z,55.74
2023-03-13T07:47:24.465Z,53.11
2023-03-13T07:49:54.023Z,52.85
2023-03-13T07:52:23.191Z,53.11
2023-03-13T07:54:51.265Z,54.56
2023-03-13T07:57:20.840Z,54.80
2023-03-13T07:59:48.473Z,54.01
2023-03-13T08:02:17.207Z,51.07
2023-03-13T08:04:44.956Z,50.74
2023-03-13T08:07:12.816Z,51.13
2023-03-13T08:09:41.567Z,52.37
2023-03-13T08:12:11.256Z,51.51
2023-03-13T08:14:39.113Z,47.92
2023-03-13T08:17:07.448Z,47.87
2023-03-13T08:19:38.652Z,49.24
2023-03-13T08:22:06.202Z,50.40
2023-03-13T08:24:33.967Z,50.71
2023-03-13T08:27:02.750Z,51.23
2023-03-13T08:29:30.515Z,49.27
2023-03-13T08:31:58.201Z,48.82
2023-03-13T08:34:25.794Z,48.22
2023-03-13T08:36:53.439Z,48.66
2023-03-13T08:39:21.856Z,49.39
2023-03-13T08:41:49.546Z,48.30
2023-03-13T08:44:21.433Z,46.69
2023-03-13T08:46:52.569Z,47.75
2023-03-13T08:49:20.237Z,48.72
2023-03-13T08:51:48.838Z,45.99
2023-03-13T08:54:16.527Z,46.03
2023-03-13T08:56:44.753Z,47.57
2023-03-13T08:59:12.861Z,46.67
2023-03-13T09:01:40.373Z,46.04
2023-03-13T09:04:08.124Z,46.57
2023-03-13T09:06:36.653Z,44.33
2023-03-13T09:09:10.722Z,46.30
2023-03-13T09:11:42.268Z,46.57
2023-03-13T09:14:12.001Z,45.76
2023-03-13T09:16:42.486Z,45.83
2023-03-13T09:19:11.114Z,45.66
2023-03-13T09:21:38.666Z,45.66
2023-03-13T09:24:06.661Z,45.16
2023-03-13T09:26:34.243Z,45.50
2023-03-13T09:29:02.201Z,46.43
2023-03-13T09:31:30.920Z,43.86
2023-03-13T09:34:02.175Z,43.93
2023-03-13T09:36:30.174Z,42.75
2023-03-13T09:38:58.719Z,45.01
2023-03-13T09:41:40.778Z,45.30
2023-03-13T09:44:19.649Z,42.83
2023-03-13T09:47:00.103Z,43.21
2023-03-13T09:49:35.056Z,42.06
2023-03-13T09:52:16.952Z,40.90
2023-03-13T09:55:03.605Z,40.87
2023-03-13T09:58:08.731Z,41.80
2023-03-13T10:00:44.694Z,42.43
2023-03-13T10:03:29.652Z,42.85
2023-03-13T10:06:01.729Z,41.13
2023-03-13T10:08:34.101Z,40.71
2023-03-13T10:11:10.385Z,40.57
2023-03-13T10:13:39.330Z,39.33
2023-03-13T10:16:10.172Z,39.48
2023-03-13T10:18:37.867Z,40.38
2023-03-13T10:21:20.134Z,39.10
2023-03-13T10:23:58.121Z,38.49
2023-03-13T10:26:29.053Z,39.48
2023-03-13T10:28:57.367Z,38.81
2023-03-13T10:31:32.466Z,38.33
2023-03-13T10:34:46.618Z,38.99
2023-03-13T10:37:15.561Z,38.67
2023-03-13T10:39:47.389Z,38.96
2023-03-13T10:42:21.892Z,41.41
2023-03-13T10:44:50.450Z,39.21
2023-03-13T10:47:18.031Z,40.28
2023-03-13T10:49:53.120Z,41.97
2023-03-13T10:52:32.531Z,41.25
2023-03-13T10:55:01.615Z,40.54
2023-03-13T10:57:30.952Z,39.95
2023-03-13T10:59:58.989Z,41.57
2023-03-13T11:02:39.184Z,39.96
2023-03-13T11:05:25.555Z,39.07
2023-03-13T11:07:53.635Z,39.39
2023-03-13T11:10:29.994Z,40.10
2023-03-13T11:13:00.116Z,40.40
2023-03-13T11:15:44.595Z,38.88
2023-03-13T11:18:15.702Z,39.60
2023-03-13T11:20:45.249Z,39.88
2023-03-13T11:23:34.099Z,40.32
2023-03-13T11:26:10.842Z,40.58
2023-03-13T11:29:19.520Z,40.77
2023-03-13T11:31:49.393Z,41.27
2023-03-13T11:34:40.270Z,40.21
2023-03-13T11:37:14.968Z,39.32
2023-03-13T11:39:47.533Z,40.62
2023-03-13T11:42:52.573Z,40.11
2023-03-13T11:45:35.565Z,40.29
2023-03-13T11:48:26.901Z,40.19
2023-03-13T11:51:20.580Z,41.00
2023-03-13T11:54:13.823Z,40.48
2023-03-13T11:56:44.063Z,38.90
2023-03-13T11:59:30.001Z,39.34
2023-03-13T12:02:01.175Z,37.33
2023-03-13T12:04:35.622Z,38.85
2023-03-13T12:07:06.909Z,38.55
2023-03-13T12:10:05.938Z,37.69
2023-03-13T12:12:41.385Z,39.07
2023-03-13T12:15:21.904Z,36.53
2023-03-13T12:18:00.870Z,37.13
2023-03-13T12:20:42.338Z,36.38
2023-03-13T12:23:42.320Z,36.69
2023-03-13T12:26:15.312Z,35.63
2023-03-13T12:28:49.435Z,35.54
2023-03-13T12:31:30.360Z,34.90
2023-03-13T12:34:18.886Z,35.79
2023-03-13T12:36:55.709Z,35.48
2023-03-13T12:39:41.977Z,33.70
2023-03-13T12:42:17.330Z,33.22
2023-03-13T12:44:44.901Z,33.59
2023-03-13T12:47:31.320Z,33.61
2023-03-13T12:50:32.525Z,32.12
2023-03-13T12:53:34.798Z,31.14
2023-03-13T12:56:44.017Z,32.13
2023-03-13T12:59:16.416Z,32.45
2023-03-13T13:01:51.784Z,31.37
2023-03-13T13:04:26.000Z,32.10
2023-03-13T13:07:05.026Z,29.69
2023-03-13T13:09:37.231Z,29.89
2023-03-13T13:12:23.306Z,28.22
2023-03-13T13:14:51.133Z,28.79
2023-03-13T13:17:39.067Z,29.12
2023-03-13T13:20:25.508Z,28.07
2023-03-13T13:22:53.802Z,26.73
2023-03-13T13:25:24.597Z,27.12
2023-03-13T13:27:52.462Z,26.27
2023-03-13T13:30:20.100Z,25.67
2023-03-13T13:32:51.784Z,26.30
2023-03-13T13:35:20.754Z,25.46
2023-03-13T13:37:49.640Z,26.90
2023-03-13T13:40:26.250Z,25.86
2023-03-13T13:42:58.203Z,26.35
2023-03-13T13:45:29.366Z,25.73
2023-03-13T13:48:15.554Z,25.61
2023-03-13T13:51:18.708Z,26.32
2023-03-13T13:53:46.226Z,24.99
2023-03-13T13:56:28.911Z,25.41
2023-03-13T13:59:24.889Z,23.95
2023-03-13T14:02:09.846Z,24.04
2023-03-13T14:04:55.806Z,22.83
2023-03-13T14:07:42.017Z,23.13
2023-03-13T14:10:40.072Z,23.08
2023-03-13T14:13:34.019Z,23.63
2023-03-13T14:16:24.383Z,23.25
2023-03-13T14:18:54.448Z,23.79
2023-03-13T14:21:25.284Z,24.33
2023-03-13T14:23:52.996Z,24.89
2023-03-13T14:26:28.464Z,24.54
2023-03-13T14:29:02.982Z,25.43
2023-03-13T14:31:35.978Z,25.16
2023-03-13T14:34:11.545Z,26.72
2023-03-13T14:37:11.168Z,27.23
2023-03-13T14:39:45.619Z,28.25
2023-03-13T14:42:14.089Z,29.62
2023-03-13T14:44:44.119Z,30.12
2023-03-13T14:47:26.884Z,29.77
2023-03-13T14:50:01.929Z,30.33
2023-03-13T14:52:34.193Z,30.69
2023-03-13T14:55:07.997Z,31.13
2023-03-13T14:57:35.834Z,30.38
2023-03-13T15:00:29.615Z,31.07
2023-03-13T15:03:13.105Z,31.04
2023-03-13T15:05:40.788Z,31.57
2023-03-13T15:08:17.482Z,31.41
2023-03-13T15:10:45.446Z,31.83
2023-03-13T15:13:19.762Z,32.08
2023-03-13T15:15:47.619Z,32.88
2023-03-13T15:18:23.523Z,32.94
2023-03-13T15:20:52.690Z,33.66
2023-03-13T15:23:20.711Z,34.67
2023-03-13T15:25:48.537Z,35.21
2023-03-13T15:28:21.443Z,36.41
2023-03-13T15:30:51.381Z,35.97
2023-03-13T15:33:22.823Z,36.54
2023-03-13T15:35:50.294Z,37.41
2023-03-13T15:38:20.633Z,37.56
2023-03-13T15:40:48.306Z,37.99
2023-03-13T15:43:17.760Z,39.43
2023-03-13T15:45:45.688Z,40.34
2023-03-13T15:48:19.736Z,41.38
2023-03-13T15:50:54.871Z,41.70
2023-03-13T15:53:27.905Z,44.21
2023-03-13T15:55:57.940Z,44.60
2023-03-13T15:58:27.552Z,47.34
2023-03-13T16:00:56.251Z,46.81
2023-03-13T16:03:25.970Z,47.41
2023-03-13T16:05:54.077Z,48.63
2023-03-13T16:08:35.235Z,48.20
2023-03-13T16:11:04.849Z,48.15
2023-03-13T16:13:33.386Z,47.86
2023-03-13T16:16:01.596Z,48.23
2023-03-13T16:18:29.352Z,47.46
2023-03-13T16:20:57.265Z,47.71
2023-03-13T16:23:24.857Z,47.79
2023-03-13T16:25:52.372Z,47.78
2023-03-13T16:28:19.921Z,48.39
2023-03-13T16:30:47.888Z,49.26
2023-03-13T16:33:15.484Z,50.34
2023-03-13T16:35:43.769Z,51.03
2023-03-13T16:38:11.278Z,52.54
2023-03-13T16:40:39.626Z,53.61
2023-03-13T16:43:07.679Z,54.40
2023-03-13T16:45:39.630Z,56.13
2023-03-13T16:48:07.380Z,54.75
2023-03-13T16:50:36.739Z,54.48
2023-03-13T16:53:04.942Z,53.88
2023-03-13T16:55:36.788Z,54.43
2023-03-13T16:58:04.784Z,54.10
2023-03-13T17:00:32.605Z,54.63
2023-03-13T17:03:01.665Z,54.34
2023-03-13T17:05:29.685Z,54.24
2023-03-13T17:07:57.252Z,54.51
2023-03-13T17:10:26.945Z,54.56
2023-03-13T17:12:54.575Z,55.72
2023-03-13T17:15:25.666Z,56.25
2023-03-13T17:17:56.176Z,55.63
2023-03-13T17:20:25.744Z,55.85
2023-03-13T17:22:56.363Z,55.80
2023-03-13T17:25:25.080Z,56.36
2023-03-13T17:27:55.892Z,58.45
2023-03-13T17:30:24.975Z,58.11
2023-03-13T17:32:52.718Z,58.55
2023-03-13T17:35:23.237Z,58.78
2023-03-13T17:37:51.036Z,58.89
2023-03-13T17:40:23.581Z,59.49
2023-03-13T17:42:51.281Z,59.21
2023-03-13T17:45:19.029Z,59.90
2023-03-13T17:47:47.226Z,60.02
2023-03-13T17:50:17.670Z,60.38
2023-03-13T17:52:51.200Z,60.20
2023-03-13T17:55:19.342Z,59.77
2023-03-13T17:57:48.470Z,59.54
2023-03-13T18:00:22.231Z,61.42
2023-03-13T18:02:50.384Z,60.88
2023-03-13T18:05:18.288Z,60.83
2023-03-13T18:07:46.323Z,61.15
2023-03-13T18:10:25.144Z,62.30
2023-03-13T18:12:53.240Z,61.25
2023-03-13T18:15:21.643Z,61.17
2023-03-13T18:17:52.012Z,61.72
2023-03-13T18:20:25.516Z,62.76
2023-03-13T18:22:54.245Z,62.98
2023-03-13T18:25:23.385Z,62.40
2023-03-13T18:27:50.974Z,62.74
2023-03-13T18:30:23.839Z,63.32
2023-03-13T18:32:51.680Z,64.15
2023-03-13T18:35:19.228Z,64.08
2023-03-13T18:37:49.686Z,64.34
2023-03-13T18:40:36.346Z,64.34
2023-03-13T18:43:06.639Z,65.18
2023-03-13T18:45:36.522Z,64.34
2023-03-13T18:48:04.180Z,64.53
2023-03-13T18:50:32.308Z,65.36
2023-03-13T18:53:00.082Z,65.62
2023-03-13T18:55:28.761Z,65.62
2023-03-13T18:57:56.538Z,67.22
2023-03-13T19:00:25.892Z,66.02
2023-03-13T19:02:53.606Z,65.53
2023-03-13T19:05:21.188Z,65.55
2023-03-13T19:07:49.836Z,65.05
2023-03-13T19:10:24.359Z,64.93
2023-03-13T19:12:58.313Z,65.32
2023-03-13T19:15:27.626Z,65.16
2023-03-13T19:17:56.359Z,65.94
2023-03-13T19:20:25.150Z,65.87
2023-03-13T19:22:54.506Z,65.64
2023-03-13T19:25:22.813Z,66.22
2023-03-13T19:27:51.683Z,66.22
2023-03-13T19:30:23.766Z,66.17
2023-03-13T19:32:57.827Z,65.72
2023-03-13T19:35:25.551Z,66.18
2023-03-13T19:37:53.190Z,65.57
2023-03-13T19:40:23.013Z,65.61
2023-03-13T19:42:50.529Z,66.84
2023-03-13T19:45:20.560Z,66.05
2023-03-13T19:47:48.296Z,65.47
2023-03-13T19:50:20.622Z,65.48
2023-03-13T19:52:48.704Z,65.13
2023-03-13T19:55:16.512Z,65.05
2023-03-13T19:57:44.630Z,64.35
2023-03-13T20:00:21.714Z,65.15
2023-03-13T20:02:58.452Z,64.27
2023-03-13T20:05:28.886Z,64.30
2023-03-13T20:07:58.862Z,65.27
2023-03-13T20:10:27.776Z,64.76
2023-03-13T20:12:58.134Z,65.09
2023-03-13T20:15:25.732Z,65.17
2023-03-13T20:17:53.332Z,64.82
2023-03-13T20:20:21.073Z,64.39
2023-03-13T20:22:50.538Z,63.67
2023-03-13T20:25:18.548Z,64.17
2023-03-13T20:27:49.818Z,64.15
2023-03-13T20:30:17.667Z,64.32
2023-03-13T20:32:57.006Z,63.76
2023-03-13T20:35:27.749Z,64.00
2023-03-13T20:37:57.546Z,63.78
2023-03-13T20:40:25.902Z,63.64
2023-03-13T20:42:53.445Z,63.33
2023-03-13T20:45:21.286Z,63.42
2023-03-13T20:47:49.688Z,63.15
2023-03-13T20:50:19.557Z,62.72
2023-03-13T20:52:48.902Z,62.46
2023-03-13T20:55:16.851Z,62.22
2023-03-13T20:57:46.362Z,61.71
2023-03-13T21:00:14.519Z,61.46
2023-03-13T21:02:42.076Z,61.09
2023-03-13T21:05:10.216Z,60.93
2023-03-13T21:07:37.900Z,60.22
2023-03-13T21:10:14.447Z,60.68
2023-03-13T21:12:42.218Z,60.25
2023-03-13T21:15:10.304Z,60.38
2023-03-13T21:17:38.467Z,59.97
2023-03-13T21:20:13.832Z,59.91
2023-03-13T21:22:42.166Z,59.90
2023-03-13T21:25:10.544Z,58.89
2023-03-13T21:27:39.177Z,59.03
2023-03-13T21:30:10.595Z,58.81
2023-03-13T21:32:39.424Z,58.69
2023-03-13T21:35:07.353Z,58.57
2023-03-13T21:37:35.645Z,58.22
2023-03-13T21:40:04.622Z,58.12
2023-03-13T21:42:34.374Z,58.55
2023-03-13T21:45:02.809Z,58.45
2023-03-13T21:47:37.392Z,58.37
2023-03-13T21:50:06.502Z,58.67
2023-03-13T21:52:40.774Z,58.75
2023-03-13T21:55:11.441Z,58.85
2023-03-13T21:57:39.954Z,58.72
2023-03-13T22:00:08.912Z,58.92
2023-03-13T22:02:37.609Z,59.18
2023-03-13T22:05:05.587Z,59.02
2023-03-13T22:07:35.357Z,59.54
2023-03-13T22:10:02.847Z,59.35
2023-03-13T22:12:37.477Z,59.21
2023-03-13T22:15:06.752Z,58.88
2023-03-13T22:17:34.850Z,58.61
2023-03-13T22:20:02.444Z,59.11
2023-03-13T22:22:31.317Z,59.78
2023-03-13T22:25:04.626Z,60.32
2023-03-13T22:27:32.760Z,59.87
2023-03-13T22:30:00.360Z,60.21
2023-03-13T22:32:28.058Z,60.68
2023-03-13T22:34:55.932Z,60.70
2023-03-13T22:37:28.882Z,60.31
2023-03-13T22:39:57.634Z,60.99
2023-03-13T22:42:26.170Z,61.16
2023-03-13T22:44:55.492Z,61.09
2023-03-13T22:47:24.787Z,61.27
2023-03-13T22:49:53.771Z,61.47
2023-03-13T22:52:23.434Z,61.73
2023-03-13T22:54:51.099Z,61.31
2023-03-13T22:57:18.607Z,61.89
2023-03-13T22:59:46.241Z,61.83
2023-03-13T23:02:13.745Z,62.29
2023-03-13T23:04:41.713Z,62.23
2023-03-13T23:07:13.365Z,61.88
2023-03-13T23:09:41.247Z,62.08
2023-03-13T23:12:09.863Z,62.02
2023-03-13T23:14:38.085Z,61.62
2023-03-13T23:17:07.000Z,61.65
2023-03-13T23:19:36.109Z,61.64
2023-03-13T23:22:04.781Z,61.78
2023-03-13T23:24:33.665Z,61.38
2023-03-13T23:27:07.930Z,61.71
2023-03-13T23:29:37.896Z,62.18
2023-03-13T23:32:07.068Z,61.70
2023-03-13T23:34:37.160Z,61.76
2023-03-13T23:37:05.374Z,62.97
2023-03-13T23:39:40.054Z,62.41
2023-03-13T23:42:08.564Z,61.97
2023-03-13T23:44:37.074Z,62.29
2023-03-13T23:47:06.015Z,62.48
2023-03-13T23:49:34.315Z,61.78
2023-03-13T23:52:04.027Z,62.50
2023-03-13T23:54:32.929Z,62.73
2023-03-13T23:57:06.488Z,62.52
2023-03-13T23:59:34.910Z,62.33
